DME weather

Domodedovo International Airport
Moscow, Moscow Oblast, Russia

Public forecast

Using degrees Celsius for public forecast. Weather courtesy of forecast.io.

Current aviation weather report (METAR) for Domodedovo International Airport

Retrieved 2019/10/18 07:30 UTC (0 seconds ago):

UUDD 180730Z 27003MPS 230V300 9999 BKN013 13/10 Q1016 R88/290042 NOSIG

Aviation forecast (TAF) for Domodedovo International Airport

Retrieved 2019/10/18 09:21 UTC (0 seconds ago):

TAF UUDD 180756Z 1809/1915 27005MPS 9999 BKN012 TX14/1812Z TN08/1903Z TEMPO 1809/1814 -SHRA FEW005 SCT015CB FM181600 18003MPS 4000 BR FEW004 BKN011 TEMPO 1819/1907 0300 FG FEW002 SCT011 BECMG 1907/1909 8000 NSW SCT011